createdAt,value
2018-08-19T00:02:34.020Z,98512.00
2018-08-19T00:06:37.113Z,98509.00
2018-08-19T00:10:52.794Z,98507.00
2018-08-19T00:14:55.047Z,98500.00
2018-08-19T00:18:57.208Z,98499.00
2018-08-19T00:22:59.376Z,98495.00
2018-08-19T00:27:01.574Z,98494.00
2018-08-19T00:31:06.358Z,98494.00
2018-08-19T00:35:08.570Z,98500.00
2018-08-19T00:39:10.757Z,98502.00
2018-08-19T00:43:12.976Z,98504.00
2018-08-19T00:47:15.186Z,98509.00
2018-08-19T00:51:17.378Z,98503.00
2018-08-19T00:55:19.626Z,98499.00
2018-08-19T00:59:21.854Z,98499.00
2018-08-19T01:03:24.044Z,98493.00
2018-08-19T01:07:26.715Z,98498.00
2018-08-19T01:11:32.500Z,98501.00
2018-08-19T01:15:34.662Z,98493.00
2018-08-19T01:19:36.811Z,98496.00
2018-08-19T01:23:38.999Z,98501.00
2018-08-19T01:27:41.204Z,98490.00
2018-08-19T01:31:44.415Z,98497.00
2018-08-19T01:35:47.982Z,98512.00
2018-08-19T01:39:50.195Z,98505.00
2018-08-19T01:44:01.935Z,98505.00
2018-08-19T01:48:04.158Z,98504.00
2018-08-19T01:52:07.230Z,98511.00
2018-08-19T01:56:09.839Z,98514.00
2018-08-19T02:00:13.257Z,98515.00
2018-08-19T02:04:15.636Z,98514.00
2018-08-19T02:08:17.881Z,98507.00
2018-08-19T02:12:21.112Z,98513.00
2018-08-19T02:16:23.555Z,98517.00
2018-08-19T02:20:41.380Z,98505.00
2018-08-19T02:24:43.440Z,98515.00
2018-08-19T02:28:47.104Z,98521.00
2018-08-19T02:32:54.524Z,98515.00
2018-08-19T02:36:59.537Z,98519.00
2018-08-19T02:41:01.791Z,98518.00
2018-08-19T02:45:06.616Z,98512.00
2018-08-19T02:49:08.805Z,98509.00
2018-08-19T02:53:11.017Z,98507.00
2018-08-19T02:57:13.159Z,98515.00
2018-08-19T03:01:16.275Z,98509.00
2018-08-19T03:05:18.429Z,98512.00
2018-08-19T03:09:20.588Z,98505.00
2018-08-19T03:13:22.791Z,98499.00
2018-08-19T03:17:26.159Z,98504.00
2018-08-19T03:21:28.315Z,98496.00
2018-08-19T03:25:30.475Z,98486.00
2018-08-19T03:29:33.083Z,98490.00
2018-08-19T03:33:35.325Z,98481.00
2018-08-19T03:37:37.480Z,98480.00
2018-08-19T03:41:39.599Z,98479.00
2018-08-19T03:45:41.730Z,98492.00
2018-08-19T03:49:44.679Z,98488.00
2018-08-19T03:53:46.859Z,98486.00
2018-08-19T03:57:49.370Z,98485.00
2018-08-19T04:01:51.525Z,98482.00
2018-08-19T04:05:58.112Z,98487.00
2018-08-19T04:10:00.886Z,98488.00
2018-08-19T04:14:08.452Z,98491.00
2018-08-19T04:18:10.675Z,98492.00
2018-08-19T04:22:12.819Z,98489.00
2018-08-19T04:26:15.897Z,98490.00
2018-08-19T04:30:18.264Z,98497.00
2018-08-19T04:34:20.454Z,98496.00
2018-08-19T04:38:23.741Z,98493.00
2018-08-19T04:42:26.027Z,98499.00
2018-08-19T04:46:28.519Z,98491.00
2018-08-19T04:50:31.455Z,98489.00
2018-08-19T04:54:34.075Z,98487.00
2018-08-19T04:58:36.360Z,98501.00
2018-08-19T05:02:38.570Z,98501.00
2018-08-19T05:06:40.809Z,98497.00
2018-08-19T05:10:43.095Z,98492.00
2018-08-19T05:14:45.227Z,98490.00
2018-08-19T05:18:53.436Z,98492.00
2018-08-19T05:22:55.584Z,98500.00
2018-08-19T05:27:03.038Z,98503.00
2018-08-19T05:31:05.218Z,98500.00
2018-08-19T05:35:07.446Z,98510.00
2018-08-19T05:39:09.608Z,98496.00
2018-08-19T05:43:11.771Z,98499.00
2018-08-19T05:47:16.411Z,98504.00
2018-08-19T05:51:18.440Z,98504.00
2018-08-19T05:55:21.048Z,98501.00
2018-08-19T05:59:23.287Z,98497.00
2018-08-19T06:03:25.636Z,98500.00
2018-08-19T06:07:28.226Z,98499.00
2018-08-19T06:11:30.415Z,98500.00
2018-08-19T06:15:33.026Z,98509.00
2018-08-19T06:19:35.810Z,98506.00
2018-08-19T06:23:38.232Z,98510.00
2018-08-19T06:27:43.726Z,98511.00
2018-08-19T06:31:45.938Z,98505.00
2018-08-19T06:35:48.227Z,98509.00
2018-08-19T06:39:51.475Z,98511.00
2018-08-19T06:43:53.684Z,98511.00
2018-08-19T06:47:55.915Z,98518.00
2018-08-19T06:51:58.095Z,98515.00
2018-08-19T06:56:00.275Z,98513.00
2018-08-19T07:00:05.638Z,98515.00
2018-08-19T07:04:07.999Z,98518.00
2018-08-19T07:08:10.167Z,98508.00
2018-08-19T07:12:16.299Z,98505.00
2018-08-19T07:17:22.130Z,98509.00
2018-08-19T07:21:24.319Z,98518.00
2018-08-19T07:25:26.971Z,98519.00
2018-08-19T07:29:29.939Z,98513.00
2018-08-19T07:33:32.444Z,98516.00
2018-08-19T07:37:34.743Z,98525.00
2018-08-19T07:41:36.892Z,98517.00
2018-08-19T07:45:39.653Z,98512.00
2018-08-19T07:49:41.918Z,98514.00
2018-08-19T07:53:44.447Z,98513.00
2018-08-19T07:57:46.631Z,98514.00
2018-08-19T08:01:48.875Z,98520.00
2018-08-19T08:05:51.065Z,98522.00
2018-08-19T08:09:53.228Z,98517.00
2018-08-19T08:13:55.446Z,98512.00
2018-08-19T08:17:57.610Z,98521.00
2018-08-19T08:22:05.616Z,98513.00
2018-08-19T08:26:07.879Z,98518.00
2018-08-19T08:30:11.246Z,98515.00
2018-08-19T08:34:13.503Z,98511.00
2018-08-19T08:38:15.687Z,98512.00
2018-08-19T08:42:17.876Z,98506.00
2018-08-19T08:46:20.060Z,98511.00
2018-08-19T08:50:22.411Z,98514.00
2018-08-19T08:54:24.710Z,98513.00
2018-08-19T08:58:26.967Z,98517.00
2018-08-19T09:02:29.288Z,98512.00
2018-08-19T09:06:31.636Z,98514.00
2018-08-19T09:10:34.015Z,98515.00
2018-08-19T09:14:36.174Z,98516.00
2018-08-19T09:18:38.815Z,98511.00
2018-08-19T09:22:41.724Z,98504.00
2018-08-19T09:26:43.963Z,98502.00
2018-08-19T09:30:46.185Z,98498.00
2018-08-19T09:34:48.347Z,98494.00
2018-08-19T09:38:50.588Z,98492.00
2018-08-19T09:42:53.318Z,98478.00
2018-08-19T09:46:55.609Z,98479.00
2018-08-19T09:51:29.031Z,98484.00
2018-08-19T09:55:37.077Z,98477.00
2018-08-19T09:59:39.729Z,98475.00
2018-08-19T10:03:42.342Z,98477.00
2018-08-19T10:07:44.766Z,98470.00
2018-08-19T10:11:46.960Z,98469.00
2018-08-19T10:15:49.196Z,98471.00
2018-08-19T10:19:51.408Z,98467.00
2018-08-19T10:23:53.634Z,98457.00
2018-08-19T10:27:56.698Z,98456.00
2018-08-19T10:32:00.833Z,98445.00
2018-08-19T10:36:03.079Z,98441.00
2018-08-19T10:40:05.484Z,98444.00
2018-08-19T10:44:07.700Z,98444.00
2018-08-19T10:48:11.319Z,98449.00
2018-08-19T10:52:18.335Z,98439.00
2018-08-19T10:57:50.420Z,98434.00
2018-08-19T11:01:52.594Z,98426.00
2018-08-19T11:05:55.646Z,98425.00
2018-08-19T11:10:15.397Z,98425.00
2018-08-19T11:14:17.608Z,98429.00
2018-08-19T11:18:25.760Z,98418.00
2018-08-19T11:22:27.959Z,98423.00
2018-08-19T11:26:30.656Z,98413.00
2018-08-19T11:30:32.987Z,98401.00
2018-08-19T11:34:35.433Z,98400.00
2018-08-19T11:38:39.279Z,98397.00
2018-08-19T11:42:41.541Z,98389.00
2018-08-19T11:46:43.783Z,98383.00
2018-08-19T11:50:46.063Z,98381.00
2018-08-19T11:54:48.284Z,98373.00
2018-08-19T11:58:50.499Z,98374.00
2018-08-19T12:02:52.656Z,98364.00
2018-08-19T12:06:54.924Z,98360.00
2018-08-19T12:11:08.458Z,98359.00
2018-08-19T12:15:10.749Z,98357.00
2018-08-19T12:19:18.717Z,98349.00
2018-08-19T12:23:20.944Z,98343.00
2018-08-19T12:27:23.206Z,98337.00
2018-08-19T12:31:25.360Z,98333.00
2018-08-19T12:35:27.660Z,98330.00
2018-08-19T12:39:29.848Z,98326.00
2018-08-19T12:43:32.774Z,98331.00
2018-08-19T12:47:35.229Z,98332.00
2018-08-19T12:51:37.479Z,98327.00
2018-08-19T12:55:39.792Z,98325.00
2018-08-19T12:59:42.095Z,98315.00
2018-08-19T13:03:44.312Z,98325.00
2018-08-19T13:07:46.527Z,98323.00
2018-08-19T13:11:48.717Z,98311.00
2018-08-19T13:15:50.892Z,98306.00
2018-08-19T13:19:58.337Z,98303.00
2018-08-19T13:24:01.840Z,98304.00
2018-08-19T13:28:04.063Z,98298.00
2018-08-19T13:32:06.298Z,98297.00
2018-08-19T13:36:08.553Z,98289.00
2018-08-19T13:40:11.697Z,98281.00
2018-08-19T13:44:13.902Z,98275.00
2018-08-19T13:48:16.101Z,98273.00
2018-08-19T13:52:18.507Z,98264.00
2018-08-19T13:56:20.802Z,98268.00
2018-08-19T14:00:27.576Z,98258.00
2018-08-19T14:04:30.144Z,98252.00
2018-08-19T14:08:32.440Z,98256.00
2018-08-19T14:12:34.895Z,98252.00
2018-08-19T14:16:37.111Z,98249.00
2018-08-19T14:20:40.459Z,98250.00
2018-08-19T14:24:42.695Z,98252.00
2018-08-19T14:28:45.007Z,98243.00
2018-08-19T14:32:47.809Z,98244.00
2018-08-19T14:36:50.602Z,98244.00
2018-08-19T14:40:53.284Z,98238.00
2018-08-19T14:44:56.473Z,98239.00
2018-08-19T14:49:04.082Z,98231.00
2018-08-19T14:53:06.431Z,98229.00
2018-08-19T14:57:08.592Z,98229.00
2018-08-19T15:01:11.179Z,98225.00
2018-08-19T15:05:19.137Z,98227.00
2018-08-19T15:09:28.097Z,98223.00
2018-08-19T15:13:30.315Z,98224.00
2018-08-19T15:17:32.542Z,98226.00
2018-08-19T15:21:34.739Z,98213.00
2018-08-19T15:25:36.903Z,98211.00
2018-08-19T15:29:40.435Z,98210.00
2018-08-19T15:33:42.614Z,98203.00
2018-08-19T15:37:44.839Z,98204.00
2018-08-19T15:41:47.476Z,98203.00
2018-08-19T15:45:49.660Z,98209.00
2018-08-19T15:50:05.970Z,98200.00
2018-08-19T15:54:08.817Z,98202.00
2018-08-19T15:58:11.655Z,98198.00
2018-08-19T16:02:14.020Z,98192.00
2018-08-19T16:06:16.184Z,98194.00
2018-08-19T16:10:18.436Z,98195.00
2018-08-19T16:14:22.775Z,98190.00
2018-08-19T16:18:24.954Z,98194.00
2018-08-19T16:22:27.157Z,98184.00
2018-08-19T16:26:29.751Z,98172.00
2018-08-19T16:30:32.362Z,98178.00
2018-08-19T16:34:34.895Z,98171.00
2018-08-19T16:38:37.488Z,98169.00
2018-08-19T16:42:40.953Z,98165.00
2018-08-19T16:46:43.240Z,98169.00
2018-08-19T16:50:45.598Z,98167.00
2018-08-19T16:54:47.916Z,98168.00
2018-08-19T16:58:50.092Z,98163.00
2018-08-19T17:02:52.423Z,98163.00
2018-08-19T17:06:54.859Z,98153.00
2018-08-19T17:10:57.400Z,98152.00
2018-08-19T17:14:59.623Z,98154.00
2018-08-19T17:19:01.953Z,98157.00
2018-08-19T17:23:04.197Z,98154.00
2018-08-19T17:27:10.909Z,98157.00
2018-08-19T17:31:13.601Z,98162.00
2018-08-19T17:35:15.796Z,98129.00
2018-08-19T17:39:19.299Z,98160.00
2018-08-19T17:43:24.835Z,98165.00
2018-08-19T17:47:27.046Z,98168.00
2018-08-19T17:51:35.950Z,98171.00
2018-08-19T17:55:38.177Z,98172.00
2018-08-19T17:59:41.012Z,98174.00
2018-08-19T18:03:43.542Z,98174.00
2018-08-19T18:07:51.700Z,98173.00
2018-08-19T18:11:59.730Z,98171.00
2018-08-19T18:16:01.931Z,98178.00
2018-08-19T18:20:28.992Z,98180.00
2018-08-19T18:24:31.227Z,98177.00
2018-08-19T18:28:33.459Z,98181.00
2018-08-19T18:32:35.728Z,98179.00
2018-08-19T18:36:37.945Z,98184.00
2018-08-19T18:40:40.217Z,98183.00
2018-08-19T18:44:42.442Z,98178.00
2018-08-19T18:48:44.647Z,98179.00
2018-08-19T18:52:46.967Z,98176.00
2018-08-19T18:56:49.200Z,98183.00
2018-08-19T19:00:56.328Z,98188.00
2018-08-19T19:04:58.579Z,98181.00
2018-08-19T19:09:00.868Z,98184.00
2018-08-19T19:13:03.307Z,98186.00
2018-08-19T19:17:05.583Z,98187.00
2018-08-19T19:21:11.685Z,98189.00
2018-08-19T19:25:14.669Z,98187.00
2018-08-19T19:29:22.430Z,98185.00
2018-08-19T19:33:24.921Z,98196.00
2018-08-19T19:37:27.429Z,98193.00
2018-08-19T19:41:31.064Z,98187.00
2018-08-19T19:45:46.161Z,98189.00
2018-08-19T19:49:53.939Z,98191.00
2018-08-19T19:53:56.216Z,98188.00
2018-08-19T19:57:58.386Z,98191.00
2018-08-19T20:02:00.671Z,98188.00
2018-08-19T20:06:04.010Z,98191.00
2018-08-19T20:10:10.751Z,98197.00
2018-08-19T20:14:12.917Z,98200.00
2018-08-19T20:18:15.120Z,98200.00
2018-08-19T20:22:18.308Z,98198.00
2018-08-19T20:26:21.089Z,98202.00
2018-08-19T20:30:23.320Z,98200.00
2018-08-19T20:34:25.539Z,98206.00
2018-08-19T20:38:28.405Z,98204.00
2018-08-19T20:42:30.582Z,98211.00
2018-08-19T20:46:32.915Z,98208.00
2018-08-19T20:50:35.076Z,98205.00
2018-08-19T20:54:37.272Z,98205.00
2018-08-19T20:58:39.488Z,98210.00
2018-08-19T21:02:41.721Z,98211.00
2018-08-19T21:06:44.187Z,98209.00
2018-08-19T21:10:47.216Z,98210.00
2018-08-19T21:14:49.417Z,98216.00
2018-08-19T21:18:51.839Z,98219.00
2018-08-19T21:22:53.999Z,98221.00
2018-08-19T21:26:59.623Z,98224.00
2018-08-19T21:31:01.787Z,98230.00
2018-08-19T21:35:04.305Z,98230.00
2018-08-19T21:39:07.093Z,98235.00
2018-08-19T21:43:09.759Z,98244.00
2018-08-19T21:47:11.952Z,98246.00
2018-08-19T21:51:14.148Z,98237.00
2018-08-19T21:55:16.314Z,98250.00
2018-08-19T21:59:22.091Z,98253.00
2018-08-19T22:03:29.979Z,98253.00
2018-08-19T22:07:32.173Z,98238.00
2018-08-19T22:11:34.923Z,98241.00
2018-08-19T22:15:38.326Z,98250.00
2018-08-19T22:19:40.682Z,98250.00
2018-08-19T22:23:44.041Z,98253.00
2018-08-19T22:27:46.252Z,98246.00
2018-08-19T22:31:50.361Z,98248.00
2018-08-19T22:35:52.954Z,98246.00
2018-08-19T22:39:55.431Z,98243.00
2018-08-19T22:43:57.883Z,98247.00
2018-08-19T22:48:00.083Z,98245.00
2018-08-19T22:52:16.399Z,98242.00
2018-08-19T22:56:19.205Z,98240.00
2018-08-19T23:00:24.890Z,98242.00
2018-08-19T23:04:28.089Z,98237.00
2018-08-19T23:08:31.830Z,98240.00
2018-08-19T23:12:34.028Z,98241.00
2018-08-19T23:16:36.656Z,98236.00
2018-08-19T23:20:38.952Z,98244.00
2018-08-19T23:24:41.147Z,98239.00
2018-08-19T23:28:43.310Z,98232.00
2018-08-19T23:32:45.474Z,98245.00
2018-08-19T23:36:47.660Z,98239.00
2018-08-19T23:40:49.918Z,98234.00
2018-08-19T23:44:52.658Z,98239.00
2018-08-19T23:48:54.808Z,98233.00
2018-08-19T23:52:57.100Z,98235.00
2018-08-19T23:56:59.288Z,98235.00
